Time;durP1;ratioP1;P1;durP2;ratioP2;P2;SDS_P1;SDS_P2;PMS_P1;PMS_P2;Temp;Humidity;BMP_temperature;BMP_pressure;BME280_temperature;BME280_humidity;BME280_pressure;Samples;Min_cycle;Max_cycle;Signal;HPM_P1;HPM_P2
2023/07/15 00:02:10;;;;;;;9.48;5.72;;;18.80;99.90;;;;;;5139128;27;20047;-83
2023/07/15 00:04:56;;;;;;;10.63;5.55;;;18.80;99.90;;;;;;5142202;27;20062;-84
2023/07/15 00:07:42;;;;;;;8.57;5.85;;;18.70;99.90;;;;;;5138571;27;20176;-82
2023/07/15 00:10:29;;;;;;;11.25;6.00;;;18.70;99.90;;;;;;5134966;27;20099;-83
2023/07/15 00:13:18;;;;;;;14.75;5.57;;;18.70;99.90;;;;;;5134069;27;20046;-83
2023/07/15 00:16:04;;;;;;;12.07;5.90;;;18.70;99.90;;;;;;5134399;27;20047;-83
2023/07/15 00:18:50;;;;;;;8.23;4.90;;;18.70;99.90;;;;;;5132723;27;20062;-83
2023/07/15 00:21:37;;;;;;;8.88;5.60;;;18.70;99.90;;;;;;5135524;27;20042;-82
2023/07/15 00:24:23;;;;;;;9.45;4.68;;;18.70;99.90;;;;;;5134506;27;20055;-81
2023/07/15 00:27:09;;;;;;;7.88;5.50;;;18.70;99.90;;;;;;5133761;27;20559;-81
2023/07/15 00:29:55;;;;;;;9.02;4.75;;;18.70;99.90;;;;;;5134362;27;20078;-83
2023/07/15 00:32:46;;;;;;;10.18;5.15;;;18.70;99.90;;;;;;5134881;27;20384;-82
2023/07/15 00:35:32;;;;;;;12.23;5.30;;;18.70;99.90;;;;;;5134218;27;20057;-83
2023/07/15 00:38:18;;;;;;;7.40;4.95;;;18.70;99.90;;;;;;5133668;27;20086;-81
2023/07/15 00:41:20;;;;;;;7.75;4.80;;;18.70;99.90;;;;;;5135033;27;20050;-83
2023/07/15 00:44:14;;;;;;;8.43;5.15;;;18.80;99.90;;;;;;5119748;27;20054;-81
2023/07/15 00:47:21;;;;;;;8.35;5.00;;;18.80;99.90;;;;;;5134154;27;20047;-83
2023/07/15 00:50:07;;;;;;;7.60;4.47;;;18.80;99.90;;;;;;5137234;27;20049;-83
2023/07/15 00:52:53;;;;;;;8.18;4.43;;;18.80;99.90;;;;;;5133704;27;20491;-82
2023/07/15 00:55:39;;;;;;;8.63;5.07;;;18.90;99.90;;;;;;5131973;27;20073;-84
2023/07/15 00:58:25;;;;;;;10.82;4.82;;;18.80;99.90;;;;;;5137130;27;20051;-83
2023/07/15 01:05:13;;;;;;;8.40;4.55;;;18.90;99.90;;;;;;5134533;27;20125;-82
2023/07/15 01:07:59;;;;;;;9.50;5.25;;;19.00;99.90;;;;;;5133542;27;20058;-84
2023/07/15 01:10:45;;;;;;;10.07;4.63;;;19.00;99.90;;;;;;5132394;27;20146;-85
2023/07/15 01:13:31;;;;;;;9.30;5.45;;;19.00;99.90;;;;;;5138114;27;20043;-86
2023/07/15 01:16:17;;;;;;;7.10;4.13;;;19.00;99.90;;;;;;5137428;27;20051;-82
2023/07/15 01:19:03;;;;;;;10.65;5.10;;;19.10;99.90;;;;;;5118928;27;20051;-84
2023/07/15 01:21:50;;;;;;;12.80;4.38;;;19.00;99.90;;;;;;5134211;27;20043;-85
2023/07/15 01:24:36;;;;;;;7.57;4.43;;;19.10;99.90;;;;;;5134380;27;20051;-84
2023/07/15 01:27:22;;;;;;;6.57;4.50;;;19.10;99.90;;;;;;5132522;27;20448;-84
2023/07/15 01:30:09;;;;;;;9.68;5.03;;;19.10;99.90;;;;;;5132058;27;20475;-85
2023/07/15 01:32:55;;;;;;;9.52;4.65;;;19.10;99.90;;;;;;5131045;27;20051;-85
2023/07/15 01:35:47;;;;;;;9.70;4.90;;;19.10;99.90;;;;;;5132210;27;20130;-85
2023/07/15 01:38:33;;;;;;;8.52;4.72;;;19.10;99.90;;;;;;5133024;27;20039;-82
2023/07/15 01:41:19;;;;;;;8.55;4.80;;;19.10;99.90;;;;;;5133850;27;20039;-82
2023/07/15 01:44:06;;;;;;;9.70;4.28;;;19.10;99.90;;;;;;5133410;27;20051;-83
2023/07/15 01:46:52;;;;;;;9.32;4.90;;;19.10;99.90;;;;;;5133879;27;20049;-81
2023/07/15 01:49:38;;;;;;;7.30;3.97;;;19.10;99.90;;;;;;5132269;27;20526;-83
2023/07/15 01:52:25;;;;;;;7.55;3.83;;;19.10;99.90;;;;;;5132063;27;20450;-82
2023/07/15 01:55:11;;;;;;;8.75;4.20;;;19.10;99.90;;;;;;5134309;27;20047;-85
2023/07/15 01:57:57;;;;;;;8.05;3.90;;;19.20;99.90;;;;;;5133277;27;20130;-83
2023/07/15 02:00:43;;;;;;;7.53;4.30;;;19.20;99.90;;;;;;5132762;27;20051;-83
2023/07/15 02:03:29;;;;;;;10.00;3.80;;;19.20;99.90;;;;;;5130408;27;20051;-85
2023/07/15 02:06:16;;;;;;;8.95;2.97;;;19.20;99.90;;;;;;5131608;27;20523;-83
2023/07/15 02:09:07;;;;;;;6.53;3.25;;;19.20;99.90;;;;;;5130915;27;20055;-85
2023/07/15 02:11:53;;;;;;;7.65;3.75;;;19.30;99.90;;;;;;5131669;27;20043;-83
2023/07/15 02:14:39;;;;;;;6.63;3.50;;;19.30;99.90;;;;;;5132334;27;20421;-83
2023/07/15 02:17:26;;;;;;;7.95;4.10;;;19.30;99.90;;;;;;5132614;27;20047;-82
2023/07/15 02:20:12;;;;;;;10.85;3.60;;;19.20;99.90;;;;;;5130502;27;20047;-82
2023/07/15 02:22:58;;;;;;;6.35;3.40;;;19.20;99.90;;;;;;5131892;27;20050;-80
2023/07/15 02:25:44;;;;;;;9.20;3.50;;;19.20;99.90;;;;;;5132766;27;20118;-81
2023/07/15 02:28:30;;;;;;;6.78;3.00;;;19.20;99.90;;;;;;5133470;27;20502;-83
2023/07/15 02:31:16;;;;;;;7.78;3.47;;;19.20;99.90;;;;;;5131144;27;20656;-84
2023/07/15 02:34:02;;;;;;;9.27;3.60;;;19.20;99.90;;;;;;5130421;27;20051;-86
2023/07/15 02:36:48;;;;;;;8.98;3.53;;;19.20;99.90;;;;;;5132253;27;20112;-82
2023/07/15 02:39:34;;;;;;;7.60;4.38;;;19.20;99.90;;;;;;5131053;27;20498;-82
2023/07/15 02:42:20;;;;;;;10.95;3.78;;;19.20;99.90;;;;;;5116261;27;20074;-83
2023/07/15 02:45:08;;;;;;;7.47;3.70;;;19.20;99.90;;;;;;5115947;27;20482;-82
2023/07/15 02:47:54;;;;;;;6.30;3.70;;;19.10;99.90;;;;;;5131701;27;20062;-82
2023/07/15 02:50:41;;;;;;;8.30;3.58;;;19.10;99.90;;;;;;5132965;27;20047;-83
2023/07/15 02:53:26;;;;;;;8.32;4.38;;;19.10;99.90;;;;;;5133388;27;20506;-82
2023/07/15 02:56:13;;;;;;;7.57;3.28;;;19.10;99.90;;;;;;5131576;28;20142;-83
2023/07/15 02:58:59;;;;;;;5.80;3.05;;;19.10;99.90;;;;;;5132590;27;20055;-82
2023/07/15 03:01:45;;;;;;;6.95;3.30;;;19.10;99.90;;;;;;5132174;27;20457;-83
2023/07/15 03:04:31;;;;;;;7.57;3.05;;;19.10;99.90;;;;;;5131336;28;20047;-83
2023/07/15 03:07:19;;;;;;;6.97;3.13;;;19.20;99.90;;;;;;5131692;27;20772;-83
2023/07/15 03:10:06;;;;;;;6.95;2.50;;;19.20;99.90;;;;;;5131019;28;20172;-82
2023/07/15 03:12:52;;;;;;;7.40;3.10;;;19.20;99.90;;;;;;5131236;27;20054;-82
2023/07/15 03:15:40;;;;;;;7.93;3.20;;;19.20;99.90;;;;;;5132428;27;20043;-83
2023/07/15 03:18:26;;;;;;;5.75;3.33;;;19.30;99.90;;;;;;5137122;27;20050;-84
2023/07/15 03:21:12;;;;;;;4.75;2.63;;;19.30;99.90;;;;;;5134553;27;20058;-83
2023/07/15 03:23:58;;;;;;;11.50;3.28;;;19.30;99.90;;;;;;5134264;27;20516;-82
2023/07/15 03:26:44;;;;;;;8.13;2.90;;;19.40;99.90;;;;;;5134624;27;20074;-82
2023/07/15 03:29:31;;;;;;;6.55;2.67;;;19.40;99.90;;;;;;5133575;27;20072;-85
2023/07/15 03:32:17;;;;;;;8.88;3.22;;;19.40;99.90;;;;;;5135320;27;20043;-84
2023/07/15 03:35:04;;;;;;;7.70;2.65;;;19.40;99.90;;;;;;5135023;27;20531;-84
2023/07/15 03:37:50;;;;;;;7.85;2.90;;;19.40;99.90;;;;;;5134106;27;20047;-83
2023/07/15 03:40:36;;;;;;;9.68;2.90;;;19.40;99.90;;;;;;5134787;27;20055;-83
2023/07/15 03:43:22;;;;;;;9.95;2.78;;;19.40;99.90;;;;;;5135430;27;20051;-82
2023/07/15 03:46:09;;;;;;;8.25;3.00;;;19.40;99.90;;;;;;5135165;27;20032;-81
2023/07/15 03:48:55;;;;;;;6.85;2.70;;;19.40;99.90;;;;;;5135974;27;20555;-84
2023/07/15 03:51:41;;;;;;;6.18;2.67;;;19.30;99.90;;;;;;5134776;27;20039;-85
2023/07/15 03:54:27;;;;;;;8.40;2.55;;;19.40;99.90;;;;;;5135267;27;20137;-82
2023/07/15 03:57:14;;;;;;;7.10;3.08;;;19.30;99.90;;;;;;5141053;27;20043;-84
2023/07/15 04:00:00;;;;;;;6.18;3.22;;;19.30;99.90;;;;;;5140187;27;20509;-81
2023/07/15 04:02:49;;;;;;;7.97;2.47;;;19.40;99.90;;;;;;5133921;27;20053;-83
2023/07/15 04:05:35;;;;;;;6.78;2.40;;;19.40;99.90;;;;;;5133896;27;20054;-81
2023/07/15 04:08:21;;;;;;;9.05;2.17;;;19.40;99.90;;;;;;5135492;27;20042;-81
2023/07/15 04:11:08;;;;;;;5.65;2.83;;;19.40;99.90;;;;;;5134700;27;20152;-83
2023/07/15 04:13:54;;;;;;;6.43;2.70;;;19.40;99.90;;;;;;5133488;27;20499;-82
2023/07/15 04:16:40;;;;;;;5.30;3.03;;;19.50;99.90;;;;;;5135003;27;20102;-82
2023/07/15 04:19:26;;;;;;;13.38;4.57;;;19.50;99.90;;;;;;5134898;27;20035;-82
2023/07/15 04:22:13;;;;;;;11.07;3.47;;;19.50;99.90;;;;;;5118589;27;20456;-83
2023/07/15 04:24:59;;;;;;;6.85;2.50;;;19.50;99.90;;;;;;5134295;27;20494;-84
2023/07/15 04:27:45;;;;;;;6.35;2.88;;;19.60;99.90;;;;;;5133846;27;20054;-82
2023/07/15 04:30:31;;;;;;;6.90;2.80;;;19.60;99.90;;;;;;5134266;27;20494;-84
2023/07/15 04:33:17;;;;;;;9.98;3.70;;;19.60;99.90;;;;;;5133575;27;20654;-82
2023/07/15 04:36:03;;;;;;;8.10;2.78;;;19.60;99.90;;;;;;5133407;27;20082;-83
2023/07/15 04:38:50;;;;;;;6.22;2.85;;;19.60;99.90;;;;;;5132312;27;20055;-81
2023/07/15 04:41:36;;;;;;;7.80;3.50;;;19.70;99.90;;;;;;5134900;27;20050;-83
2023/07/15 04:44:22;;;;;;;5.88;3.20;;;19.70;99.90;;;;;;5132308;27;20521;-84
2023/07/15 04:47:08;;;;;;;7.13;3.05;;;19.70;99.90;;;;;;5120592;27;20107;-82
2023/07/15 04:49:54;;;;;;;7.00;3.13;;;19.80;99.90;;;;;;5134547;27;20103;-83
2023/07/15 04:52:40;;;;;;;9.07;3.30;;;19.80;99.90;;;;;;5132426;27;20055;-84
2023/07/15 04:55:26;;;;;;;7.22;3.20;;;19.90;99.90;;;;;;5133274;27;20490;-82
2023/07/15 04:58:14;;;;;;;9.20;3.45;;;20.00;99.90;;;;;;5133477;27;20043;-83
2023/07/15 05:01:00;;;;;;;8.85;3.55;;;20.00;99.90;;;;;;5133314;27;20108;-83
2023/07/15 05:03:46;;;;;;;8.70;3.22;;;20.10;99.90;;;;;;5132818;27;20051;-85
2023/07/15 05:06:32;;;;;;;15.40;3.63;;;20.00;99.90;;;;;;5134939;27;20051;-84
2023/07/15 05:09:18;;;;;;;8.65;3.13;;;20.00;99.90;;;;;;5136188;27;20039;-82
2023/07/15 05:12:05;;;;;;;8.65;2.95;;;20.10;99.90;;;;;;5137119;27;20059;-84
2023/07/15 05:14:51;;;;;;;8.88;3.17;;;20.10;99.90;;;;;;5138856;27;20104;-83
2023/07/15 05:17:37;;;;;;;7.93;3.20;;;20.20;99.90;;;;;;5137170;27;20065;-82
2023/07/15 05:20:24;;;;;;;11.18;3.60;;;20.30;99.90;;;;;;5135986;27;20080;-81
2023/07/15 05:23:10;;;;;;;6.72;3.00;;;20.40;99.90;;;;;;5134595;27;20392;-84
2023/07/15 05:26:00;;;;;;;5.47;3.10;;;20.40;99.90;;;;;;5137569;27;20065;-83
2023/07/15 05:28:46;;;;;;;7.95;3.55;;;20.50;99.90;;;;;;5136602;27;20115;-82
2023/07/15 05:31:32;;;;;;;4.93;2.90;;;20.60;99.90;;;;;;5133093;27;20051;-83
2023/07/15 05:34:19;;;;;;;7.70;3.30;;;20.60;99.90;;;;;;5131767;27;20055;-82
2023/07/15 05:37:05;;;;;;;5.43;2.80;;;20.70;99.90;;;;;;5131668;27;20419;-83
2023/07/15 05:39:51;;;;;;;8.52;3.17;;;20.80;99.90;;;;;;5132624;27;20126;-82
2023/07/15 05:42:44;;;;;;;8.13;2.60;;;20.80;99.90;;;;;;5133814;27;20134;-84
2023/07/15 05:45:30;;;;;;;8.85;3.13;;;20.90;99.90;;;;;;5133053;27;20046;-84
2023/07/15 05:48:16;;;;;;;5.55;3.40;;;21.00;99.90;;;;;;5133602;27;20104;-83
2023/07/15 05:51:02;;;;;;;6.03;2.90;;;21.10;99.90;;;;;;5132946;27;20418;-83
2023/07/15 05:53:48;;;;;;;7.35;3.63;;;21.20;99.90;;;;;;5131595;27;20115;-83
2023/07/15 05:56:35;;;;;;;9.40;3.95;;;21.20;99.90;;;;;;5134298;27;20047;-82
2023/07/15 05:59:22;;;;;;;7.30;3.28;;;21.30;99.90;;;;;;5132523;27;20483;-84
2023/07/15 06:02:08;;;;;;;8.82;3.78;;;21.40;99.90;;;;;;5131621;27;20047;-85
2023/07/15 06:04:54;;;;;;;7.68;3.75;;;21.50;99.90;;;;;;5130714;27;20058;-83
2023/07/15 06:07:40;;;;;;;8.48;3.38;;;21.70;99.90;;;;;;5133818;27;20407;-80
2023/07/15 06:10:26;;;;;;;11.85;3.70;;;21.70;99.90;;;;;;5134674;27;20470;-83
2023/07/15 06:13:13;;;;;;;7.38;3.60;;;21.80;99.90;;;;;;5132364;27;20066;-85
2023/07/15 06:15:59;;;;;;;13.73;4.38;;;22.00;99.90;;;;;;5131710;27;20047;-83
2023/07/15 06:18:45;;;;;;;7.80;3.88;;;22.10;99.90;;;;;;5131405;27;20058;-83
2023/07/15 06:21:31;;;;;;;9.93;3.85;;;22.20;99.90;;;;;;5133364;27;20108;-85
2023/07/15 06:24:18;;;;;;;10.85;3.95;;;22.30;99.90;;;;;;5132337;27;20054;-84
2023/07/15 06:27:04;;;;;;;6.90;3.28;;;22.30;99.90;;;;;;5132917;27;20490;-84
2023/07/15 06:29:50;;;;;;;7.70;3.78;;;22.40;99.90;;;;;;5131942;27;20127;-83
2023/07/15 06:32:36;;;;;;;5.63;3.22;;;22.30;99.90;;;;;;5131130;27;20039;-84
2023/07/15 06:35:23;;;;;;;7.15;3.70;;;22.40;99.90;;;;;;5132416;27;20512;-85
2023/07/15 06:38:09;;;;;;;6.90;3.45;;;22.50;99.90;;;;;;5131379;27;20494;-83
2023/07/15 06:40:55;;;;;;;5.18;2.80;;;22.50;99.90;;;;;;5132278;27;20047;-83
2023/07/15 06:43:41;;;;;;;6.95;3.08;;;22.60;99.90;;;;;;5132764;27;20133;-83
2023/07/15 06:46:28;;;;;;;8.20;3.30;;;22.70;99.90;;;;;;5131802;27;20062;-82
2023/07/15 06:49:14;;;;;;;14.43;3.65;;;22.70;99.90;;;;;;5131463;27;20047;-82
2023/07/15 06:52:00;;;;;;;5.55;2.78;;;22.80;99.90;;;;;;5130910;27;20047;-82
2023/07/15 06:54:46;;;;;;;5.43;3.08;;;22.90;99.90;;;;;;5130791;28;20392;-82
2023/07/15 06:57:32;;;;;;;7.03;2.88;;;23.00;99.90;;;;;;5131359;28;20082;-82
2023/07/15 07:00:19;;;;;;;8.38;2.95;;;23.10;99.90;;;;;;5131316;28;20047;-83
2023/07/15 07:03:05;;;;;;;5.28;2.45;;;23.20;99.90;;;;;;5131126;27;20047;-83
2023/07/15 07:05:51;;;;;;;7.15;2.90;;;23.30;99.90;;;;;;5130335;28;20058;-84
2023/07/15 07:08:37;;;;;;;6.78;2.60;;;23.30;99.90;;;;;;5130404;28;20058;-83
2023/07/15 07:11:23;;;;;;;6.45;3.28;;;23.40;99.90;;;;;;5130145;28;20043;-84
2023/07/15 07:14:09;;;;;;;5.00;2.47;;;23.50;99.90;;;;;;5130523;28;20051;-84
2023/07/15 07:16:56;;;;;;;9.10;2.58;;;23.50;99.90;;;;;;5132593;27;20107;-85
2023/07/15 07:19:42;;;;;;;6.28;3.03;;;23.70;99.90;;;;;;5132345;28;20047;-84
2023/07/15 07:22:28;;;;;;;6.93;2.40;;;23.90;99.90;;;;;;5130566;28;20047;-83
2023/07/15 07:25:14;;;;;;;6.40;1.58;;;23.80;99.90;;;;;;5132875;27;20465;-84
2023/07/15 07:28:00;;;;;;;4.28;1.50;;;23.70;99.90;;;;;;5132923;28;20043;-85
2023/07/15 07:30:46;;;;;;;6.03;1.42;;;23.40;99.90;;;;;;5131726;28;20054;-83
2023/07/15 07:33:32;;;;;;;3.72;1.48;;;23.50;99.90;;;;;;5131504;28;20046;-84
2023/07/15 07:36:19;;;;;;;7.85;1.73;;;23.50;99.90;;;;;;5132483;27;20050;-84
2023/07/15 07:39:05;;;;;;;3.65;1.58;;;23.50;99.90;;;;;;5131407;28;20050;-85
2023/07/15 07:41:51;;;;;;;4.88;1.60;;;23.50;99.90;;;;;;5131080;28;20100;-85
2023/07/15 07:44:38;;;;;;;5.05;1.55;;;23.50;99.90;;;;;;5130255;28;20054;-85
2023/07/15 07:47:24;;;;;;;5.28;1.55;;;23.50;99.90;;;;;;5131114;28;20039;-84
2023/07/15 07:50:10;;;;;;;5.35;1.90;;;23.50;99.90;;;;;;5131297;27;20057;-83
2023/07/15 07:52:57;;;;;;;3.65;1.40;;;23.50;99.90;;;;;;5131114;28;20043;-85
2023/07/15 07:55:43;;;;;;;4.40;1.50;;;23.60;99.90;;;;;;5130411;28;20065;-85
2023/07/15 07:58:29;;;;;;;3.60;1.73;;;23.70;99.90;;;;;;5132011;27;20452;-84
2023/07/15 08:01:15;;;;;;;5.40;2.13;;;23.70;99.90;;;;;;5130305;27;20051;-85
2023/07/15 08:04:01;;;;;;;5.53;2.28;;;23.80;99.90;;;;;;5134334;27;20551;-84
2023/07/15 08:06:48;;;;;;;8.77;2.38;;;24.00;99.90;;;;;;5134358;27;20091;-83
2023/07/15 08:09:34;;;;;;;9.68;2.25;;;24.00;99.90;;;;;;5132407;27;20054;-85
2023/07/15 08:12:20;;;;;;;7.65;2.15;;;24.30;99.90;;;;;;5133871;27;20082;-83
2023/07/15 08:15:06;;;;;;;6.03;1.90;;;24.50;99.90;;;;;;5133770;27;20051;-83
2023/07/15 08:17:52;;;;;;;4.78;1.80;;;24.70;99.90;;;;;;5134639;27;20060;-83
2023/07/15 08:20:42;;;;;;;4.07;1.38;;;24.70;99.90;;;;;;5135053;27;20039;-85
2023/07/15 08:23:28;;;;;;;3.08;1.35;;;24.70;99.90;;;;;;5134127;27;20509;-84
2023/07/15 08:26:14;;;;;;;6.68;1.67;;;24.70;99.90;;;;;;5133434;27;20100;-85
2023/07/15 08:29:02;;;;;;;4.53;1.80;;;25.00;99.90;;;;;;5133912;27;20510;-84
2023/07/15 08:31:48;;;;;;;6.97;1.88;;;24.70;99.90;;;;;;5133295;27;20051;-83
2023/07/15 08:34:34;;;;;;;3.95;1.40;;;24.70;99.90;;;;;;5133893;27;20054;-85
2023/07/15 08:37:20;;;;;;;4.28;1.25;;;24.90;99.90;;;;;;5133244;27;20053;-84
2023/07/15 08:40:08;;;;;;;7.22;1.58;;;24.90;99.90;;;;;;5133132;27;20134;-85
2023/07/15 08:42:54;;;;;;;4.50;1.80;;;25.10;99.90;;;;;;5133325;27;20047;-84
2023/07/15 08:45:40;;;;;;;4.53;1.42;;;25.00;99.90;;;;;;5134042;27;20116;-84
2023/07/15 08:48:28;;;;;;;6.60;1.98;;;25.00;99.90;;;;;;5133336;27;20074;-84
2023/07/15 08:51:14;;;;;;;6.20;1.60;;;25.00;99.90;;;;;;5133587;27;20050;-84
2023/07/15 08:54:08;;;;;;;4.65;1.67;;;25.20;99.90;;;;;;5133027;27;20063;-85
2023/07/15 08:56:55;;;;;;;4.37;1.40;;;25.10;99.90;;;;;;5134725;27;20510;-83
2023/07/15 08:59:41;;;;;;;5.90;1.20;;;25.30;99.90;;;;;;5132326;27;20043;-84
2023/07/15 09:02:28;;;;;;;6.10;1.42;;;25.60;99.90;;;;;;5133973;27;20562;-82
2023/07/15 09:05:14;;;;;;;5.82;1.48;;;26.00;99.90;;;;;;5134003;27;20184;-84
2023/07/15 09:08:09;;;;;;;6.32;1.50;;;25.80;99.80;;;;;;5133523;27;20143;-82
2023/07/15 09:10:57;;;;;;;5.32;1.80;;;25.80;99.90;;;;;;5134732;27;20082;-84
2023/07/15 09:13:44;;;;;;;5.70;1.50;;;26.00;99.90;;;;;;5133378;27;20058;-83
2023/07/15 09:16:30;;;;;;;4.20;1.80;;;25.70;99.90;;;;;;5131954;27;20530;-83
2023/07/15 09:19:21;;;;;;;8.48;1.70;;;25.60;99.90;;;;;;5133750;27;20251;-85
2023/07/15 09:22:08;;;;;;;4.75;1.27;;;25.40;99.90;;;;;;5133666;27;20043;-84
2023/07/15 09:25:03;;;;;;;3.30;1.05;;;25.30;99.90;;;;;;5135640;27;20130;-83
2023/07/15 09:27:50;;;;;;;4.57;1.20;;;25.40;99.90;;;;;;5134434;27;20096;-83
2023/07/15 09:30:39;;;;;;;2.38;1.00;;;25.70;99.70;;;;;;5132237;27;20043;-82
2023/07/15 09:33:29;;;;;;;3.28;1.30;;;25.70;97.90;;;;;;5132813;27;20086;-83
2023/07/15 09:36:28;;;;;;;3.63;1.20;;;26.10;97.80;;;;;;5132442;27;20044;-84
2023/07/15 09:39:17;;;;;;;4.43;1.40;;;26.20;97.00;;;;;;5135552;27;20043;-83
2023/07/15 09:42:04;;;;;;;4.90;1.23;;;26.20;96.90;;;;;;5133440;27;20051;-84
2023/07/15 09:44:50;;;;;;;4.88;1.20;;;26.10;97.00;;;;;;5132914;27;20074;-84
2023/07/15 09:47:36;;;;;;;4.07;1.10;;;26.00;96.60;;;;;;5132540;27;20453;-84
2023/07/15 09:50:25;;;;;;;3.80;1.05;;;26.00;97.70;;;;;;5134293;27;20474;-83
2023/07/15 09:53:11;;;;;;;5.78;1.27;;;26.00;97.60;;;;;;5133775;27;20058;-83
2023/07/15 09:56:00;;;;;;;6.13;1.40;;;25.90;97.60;;;;;;5133065;27;20051;-84
2023/07/15 09:58:49;;;;;;;3.05;1.00;;;26.00;97.20;;;;;;5132146;27;20051;-85
2023/07/15 10:01:41;;;;;;;4.32;1.00;;;26.50;97.10;;;;;;5133488;27;20053;-84
2023/07/15 10:04:27;;;;;;;5.20;1.27;;;26.60;96.80;;;;;;5133279;27;20120;-83
2023/07/15 10:07:14;;;;;;;3.00;1.33;;;26.80;96.60;;;;;;5131762;27;20055;-84
2023/07/15 10:10:00;;;;;;;3.80;1.00;;;27.10;96.20;;;;;;5132136;27;20048;-85
2023/07/15 10:12:48;;;;;;;4.30;1.00;;;27.30;95.80;;;;;;5131987;27;20518;-84
2023/07/15 10:15:34;;;;;;;4.20;1.10;;;27.30;95.50;;;;;;5130331;27;20093;-83
2023/07/15 10:18:22;;;;;;;2.83;1.10;;;27.20;95.50;;;;;;5131828;27;20047;-85
2023/07/15 10:21:09;;;;;;;5.72;1.15;;;27.10;95.40;;;;;;5117931;27;20380;-84
2023/07/15 10:24:09;;;;;;;4.07;1.10;;;27.10;95.80;;;;;;5133968;27;20047;-84
2023/07/15 10:26:56;;;;;;;3.70;1.08;;;26.70;94.50;;;;;;5131655;27;20099;-83
2023/07/15 10:29:42;;;;;;;3.10;1.33;;;26.40;95.40;;;;;;5132944;27;20092;-84
2023/07/15 10:32:28;;;;;;;5.47;1.38;;;26.50;95.40;;;;;;5132164;27;20075;-83
2023/07/15 10:35:19;;;;;;;3.88;1.02;;;26.60;95.00;;;;;;5132507;27;20139;-83
2023/07/15 10:38:25;;;;;;;6.32;1.75;;;26.40;95.20;;;;;;5132365;27;20562;-83
2023/07/15 10:41:13;;;;;;;3.50;1.00;;;26.80;95.60;;;;;;5131549;27;20047;-83
2023/07/15 10:44:24;;;;;;;3.13;0.90;;;26.70;95.30;;;;;;5133201;27;20046;-84
2023/07/15 10:47:10;;;;;;;6.13;1.30;;;27.00;95.10;;;;;;5129985;27;20057;-84
2023/07/15 10:49:57;;;;;;;3.85;1.52;;;27.20;95.20;;;;;;5130997;27;20066;-83
2023/07/15 10:52:43;;;;;;;7.05;1.30;;;27.20;94.70;;;;;;5131491;27;20102;-83
2023/07/15 10:55:28;;;;;;;4.55;1.63;;;27.20;95.10;;;;;;5129610;27;20051;-83
2023/07/15 10:58:18;;;;;;;4.82;1.38;;;27.30;95.20;;;;;;5131086;28;20043;-85
2023/07/15 11:01:09;;;;;;;5.32;1.40;;;27.60;95.20;;;;;;5129292;28;20043;-83
2023/07/15 11:04:03;;;;;;;5.72;2.00;;;27.70;95.20;;;;;;5129780;28;20047;-84
2023/07/15 11:06:50;;;;;;;4.88;1.77;;;27.90;94.60;;;;;;5132656;27;20500;-85
2023/07/15 11:09:38;;;;;;;3.72;1.45;;;28.00;94.40;;;;;;5131868;28;20050;-84
2023/07/15 11:12:24;;;;;;;3.67;1.30;;;28.30;94.10;;;;;;5130497;28;20039;-84
2023/07/15 11:15:10;;;;;;;5.57;1.10;;;28.50;94.30;;;;;;5131525;27;20058;-85
2023/07/15 11:17:56;;;;;;;3.00;1.40;;;28.70;94.40;;;;;;5132366;27;20043;-84
2023/07/15 11:20:48;;;;;;;5.07;1.55;;;28.90;94.10;;;;;;5130134;28;20043;-85
2023/07/15 11:23:34;;;;;;;6.57;2.03;;;28.50;93.70;;;;;;5130926;28;20567;-84
2023/07/15 11:26:24;;;;;;;3.45;1.25;;;28.20;94.20;;;;;;5132441;27;20082;-84
2023/07/15 11:29:17;;;;;;;4.05;1.48;;;28.50;94.60;;;;;;5131510;27;20058;-84
2023/07/15 11:32:06;;;;;;;4.63;1.55;;;28.30;93.90;;;;;;5132596;27;20129;-83
2023/07/15 11:34:52;;;;;;;3.42;1.60;;;27.90;94.60;;;;;;5132201;27;20051;-83
2023/07/15 11:37:43;;;;;;;3.72;1.00;;;28.00;95.10;;;;;;5132801;27;20439;-84
2023/07/15 11:40:29;;;;;;;3.88;1.58;;;28.00;95.60;;;;;;5133528;27;20062;-84
2023/07/15 11:43:16;;;;;;;5.35;1.55;;;27.90;95.30;;;;;;5136345;27;20489;-85
2023/07/15 11:46:03;;;;;;;4.97;1.48;;;28.10;95.50;;;;;;5134942;27;20134;-84
2023/07/15 11:48:49;;;;;;;3.33;1.38;;;28.30;95.40;;;;;;5133414;27;20111;-85
2023/07/15 11:51:40;;;;;;;3.05;1.35;;;28.90;94.80;;;;;;5134470;27;20111;-84
2023/07/15 11:54:26;;;;;;;4.90;1.20;;;29.30;93.80;;;;;;5134298;27;20047;-83
2023/07/15 11:57:12;;;;;;;5.90;1.48;;;29.00;93.60;;;;;;5134064;27;20096;-84
2023/07/15 11:59:58;;;;;;;3.22;1.13;;;28.30;93.20;;;;;;5134537;27;20142;-83
2023/07/15 12:02:44;;;;;;;5.45;1.40;;;27.90;93.70;;;;;;5135376;27;20471;-83
2023/07/15 12:05:30;;;;;;;6.32;1.58;;;27.90;94.30;;;;;;5135094;27;20059;-83
2023/07/15 12:08:16;;;;;;;3.88;1.40;;;28.10;94.30;;;;;;5133617;27;20051;-84
2023/07/15 12:11:03;;;;;;;2.80;1.10;;;28.10;94.60;;;;;;5134306;27;20047;-85
2023/07/15 12:13:49;;;;;;;3.25;1.20;;;27.80;94.20;;;;;;5134436;27;20093;-84
2023/07/15 12:16:37;;;;;;;4.60;1.40;;;27.60;94.60;;;;;;5134582;27;20055;-84
2023/07/15 12:19:24;;;;;;;4.95;1.48;;;27.20;94.70;;;;;;5133793;27;20050;-85
2023/07/15 12:22:10;;;;;;;5.53;1.30;;;27.00;95.10;;;;;;5134079;27;20051;-84
2023/07/15 12:24:56;;;;;;;3.55;1.60;;;26.90;95.40;;;;;;5119188;27;20059;-85
2023/07/15 12:27:42;;;;;;;3.60;1.27;;;27.00;95.50;;;;;;5134206;27;20118;-84
2023/07/15 12:30:28;;;;;;;2.67;1.20;;;27.10;95.50;;;;;;5134835;27;20142;-85
2023/07/15 12:33:14;;;;;;;2.97;1.40;;;27.50;95.50;;;;;;5132471;27;20066;-84
2023/07/15 12:36:00;;;;;;;4.93;1.40;;;27.60;95.40;;;;;;5133565;27;20080;-85
2023/07/15 12:38:52;;;;;;;2.40;1.10;;;27.40;95.10;;;;;;5134874;27;20061;-84
2023/07/15 12:41:38;;;;;;;3.67;1.33;;;27.50;95.20;;;;;;5120962;27;20047;-84
2023/07/15 12:44:25;;;;;;;3.75;1.45;;;27.70;95.30;;;;;;5132629;27;20075;-84
2023/07/15 12:47:11;;;;;;;4.15;1.67;;;28.10;95.40;;;;;;5131566;27;20046;-84
2023/07/15 12:49:57;;;;;;;3.90;1.60;;;28.00;95.00;;;;;;5134416;27;20204;-84
2023/07/15 12:52:43;;;;;;;4.18;1.52;;;27.70;94.80;;;;;;5134152;27;20444;-83
2023/07/15 12:55:29;;;;;;;3.75;1.48;;;27.80;95.10;;;;;;5134323;27;20073;-83
2023/07/15 12:58:16;;;;;;;5.32;1.60;;;27.90;95.00;;;;;;5133199;27;20078;-84
2023/07/15 13:01:02;;;;;;;2.92;1.23;;;27.70;95.10;;;;;;5133370;27;20035;-84
2023/07/15 13:03:48;;;;;;;3.42;1.70;;;27.50;95.30;;;;;;5132748;27;20047;-84
2023/07/15 13:06:34;;;;;;;3.88;1.40;;;27.80;95.50;;;;;;5132801;27;20490;-83
2023/07/15 13:09:20;;;;;;;2.90;1.30;;;27.60;94.90;;;;;;5132555;27;20047;-83
2023/07/15 13:12:06;;;;;;;3.90;1.80;;;27.80;95.10;;;;;;5133729;27;20108;-84
2023/07/15 13:14:53;;;;;;;7.03;1.75;;;27.60;94.50;;;;;;5118143;27;20058;-84
2023/07/15 13:17:40;;;;;;;4.18;1.88;;;27.50;94.90;;;;;;5132662;27;20047;-84
2023/07/15 13:20:26;;;;;;;5.20;1.60;;;27.50;94.90;;;;;;5133617;27;20557;-83
2023/07/15 13:23:12;;;;;;;3.22;1.45;;;27.70;94.60;;;;;;5130631;27;20043;-84
2023/07/15 13:26:00;;;;;;;4.85;1.90;;;28.20;93.90;;;;;;5132351;27;20061;-84
2023/07/15 13:28:47;;;;;;;3.47;1.30;;;28.60;94.20;;;;;;5132685;27;20043;-84
2023/07/15 13:31:33;;;;;;;4.40;1.65;;;28.80;93.10;;;;;;5133341;27;20058;-84
2023/07/15 13:34:19;;;;;;;3.42;1.23;;;29.00;93.40;;;;;;5132134;27;20050;-83
2023/07/15 13:37:05;;;;;;;6.90;1.48;;;29.50;93.40;;;;;;5132693;27;20066;-83
2023/07/15 13:39:51;;;;;;;3.05;1.10;;;30.00;93.50;;;;;;5132195;27;20345;-84
2023/07/15 13:42:38;;;;;;;5.05;1.83;;;30.50;92.30;;;;;;5133084;27;20047;-84
2023/07/15 13:45:24;;;;;;;3.90;1.60;;;30.30;92.40;;;;;;5133264;27;20053;-84
2023/07/15 13:48:10;;;;;;;6.00;1.50;;;29.90;91.90;;;;;;5132565;27;20066;-84
2023/07/15 13:50:56;;;;;;;4.70;1.33;;;29.90;91.90;;;;;;5131805;27;20090;-84
2023/07/15 13:53:42;;;;;;;2.55;1.30;;;30.00;92.10;;;;;;5131367;27;20085;-83
2023/07/15 13:56:28;;;;;;;5.30;1.65;;;29.70;92.20;;;;;;5130892;27;20050;-83
2023/07/15 13:59:16;;;;;;;5.63;2.28;;;29.30;92.60;;;;;;5131910;27;20058;-83
2023/07/15 14:02:02;;;;;;;4.15;1.55;;;29.10;93.10;;;;;;5134172;27;20054;-84
2023/07/15 14:04:48;;;;;;;3.78;1.50;;;28.70;93.50;;;;;;5132740;27;20047;-84
2023/07/15 14:07:34;;;;;;;5.72;1.90;;;28.80;93.80;;;;;;5132364;27;20413;-85
2023/07/15 14:10:20;;;;;;;3.47;1.58;;;28.40;93.80;;;;;;5117464;27;20047;-84
2023/07/15 14:13:06;;;;;;;5.07;1.58;;;28.10;94.40;;;;;;5132273;27;20043;-83
2023/07/15 14:15:52;;;;;;;3.78;1.42;;;27.80;94.60;;;;;;5132644;27;20133;-84
2023/07/15 14:18:38;;;;;;;5.30;1.55;;;27.70;94.80;;;;;;5132359;27;20502;-84
2023/07/15 14:21:24;;;;;;;6.65;2.20;;;27.60;94.70;;;;;;5132151;27;20184;-84
2023/07/15 14:24:10;;;;;;;6.07;1.67;;;27.80;94.80;;;;;;5131195;27;20434;-83
2023/07/15 14:26:57;;;;;;;3.63;1.58;;;27.90;94.90;;;;;;5132662;27;20104;-84
2023/07/15 14:29:43;;;;;;;4.93;1.77;;;27.90;94.50;;;;;;5132083;27;20179;-84
2023/07/15 14:32:29;;;;;;;8.27;2.00;;;28.30;95.10;;;;;;5132943;27;20043;-84